Time;durP1;ratioP1;P1;durP2;ratioP2;P2;SDS_P1;SDS_P2;PMS_P1;PMS_P2;Temp;Humidity;BMP_temperature;BMP_pressure;BME280_temperature;BME280_humidity;BME280_pressure;Samples;Min_cycle;Max_cycle;Signal;HPM_P1;HPM_P2
2021/09/03 00:01:57;;;;;;;;;;;19.90;99.90;;;;;;5015214;28;19914;-82
2021/09/03 00:04:22;;;;;;;;;;;19.90;99.90;;;;;;5017967;28;19905;-82
2021/09/03 00:06:48;;;;;;;;;;;19.80;99.90;;;;;;5010177;28;19949;-81
2021/09/03 00:09:14;;;;;;;;;;;19.80;99.90;;;;;;5007848;28;19921;-82
2021/09/03 00:11:40;;;;;;;;;;;19.80;99.90;;;;;;5013902;28;19952;-81
2021/09/03 00:14:05;;;;;;;;;;;19.80;99.90;;;;;;5002716;28;19922;-81
2021/09/03 00:16:31;;;;;;;;;;;19.70;99.90;;;;;;5004064;28;19910;-80
2021/09/03 00:18:57;;;;;;;;;;;19.70;99.90;;;;;;5009707;28;19917;-81
2021/09/03 00:21:22;;;;;;;;;;;19.50;99.90;;;;;;4989122;28;19910;-81
2021/09/03 00:23:48;;;;;;;;;;;19.50;99.90;;;;;;4998888;28;19918;-81
2021/09/03 00:26:14;;;;;;;;;;;19.40;99.90;;;;;;5021473;28;19940;-81
2021/09/03 00:28:40;;;;;;;;;;;19.30;99.90;;;;;;5015833;28;19909;-81
2021/09/03 00:31:05;;;;;;;;;;;19.30;99.90;;;;;;5023136;28;19905;-81
2021/09/03 00:33:31;;;;;;;;;;;19.30;99.90;;;;;;5021910;28;19909;-82
2021/09/03 00:35:57;;;;;;;;;;;19.30;99.90;;;;;;5016637;28;19929;-81
2021/09/03 00:38:22;;;;;;;;;;;19.20;99.90;;;;;;5015725;28;20061;-81
2021/09/03 00:40:48;;;;;;;;;;;19.10;99.90;;;;;;5021126;28;19932;-80
2021/09/03 00:43:14;;;;;;;;;;;19.10;99.90;;;;;;5007912;28;19910;-82
2021/09/03 00:45:39;;;;;;;;;;;19.10;99.90;;;;;;5024208;28;19916;-81
2021/09/03 00:48:05;;;;;;;;;;;19.10;99.90;;;;;;5021512;28;19909;-81
2021/09/03 00:50:31;;;;;;;;;;;19.10;99.90;;;;;;5012084;28;19906;-81
2021/09/03 00:52:57;;;;;;;;;;;19.20;99.90;;;;;;5019941;28;19910;-81
2021/09/03 00:55:22;;;;;;;;;;;19.20;99.90;;;;;;5016798;28;19909;-80
2021/09/03 00:57:49;;;;;;;;;;;19.10;99.90;;;;;;5017746;28;19933;-81
2021/09/03 01:00:14;;;;;;;;;;;19.00;99.90;;;;;;5009593;28;19905;-82
2021/09/03 01:02:40;;;;;;;;;;;19.00;99.90;;;;;;5010020;28;19956;-81
2021/09/03 01:05:06;;;;;;;;;;;19.10;99.90;;;;;;5011114;28;20024;-82
2021/09/03 01:07:32;;;;;;;;;;;19.20;99.90;;;;;;5014033;28;19937;-81
2021/09/03 01:09:58;;;;;;;;;;;19.30;99.90;;;;;;5023909;28;19932;-81
2021/09/03 01:12:23;;;;;;;;;;;19.20;99.90;;;;;;5018266;28;19901;-81
2021/09/03 01:14:49;;;;;;;;;;;19.30;99.90;;;;;;5017993;28;19913;-82
2021/09/03 01:17:15;;;;;;;;;;;19.30;99.90;;;;;;5015616;28;19937;-81
2021/09/03 01:19:40;;;;;;;;;;;19.20;99.90;;;;;;5025835;28;19996;-82
2021/09/03 01:22:06;;;;;;;;;;;19.10;99.90;;;;;;5018108;28;19925;-81
2021/09/03 01:24:32;;;;;;;;;;;19.00;99.90;;;;;;5014099;28;20036;-82
2021/09/03 01:26:58;;;;;;;;;;;19.00;99.90;;;;;;5002665;28;19924;-82
2021/09/03 01:29:23;;;;;;;;;;;18.90;99.90;;;;;;5009198;28;19980;-81
2021/09/03 01:31:49;;;;;;;;;;;18.80;99.90;;;;;;5016292;28;19914;-81
2021/09/03 01:34:15;;;;;;;;;;;18.70;99.90;;;;;;5012179;28;19910;-81
2021/09/03 01:36:40;;;;;;;;;;;18.60;99.90;;;;;;5017117;28;20008;-81
2021/09/03 01:39:06;;;;;;;;;;;18.50;99.90;;;;;;5013283;28;19932;-82
2021/09/03 01:41:32;;;;;;;;;;;18.50;99.90;;;;;;5010573;28;20188;-80
2021/09/03 01:43:57;;;;;;;;;;;18.50;99.90;;;;;;5012452;28;19992;-81
2021/09/03 01:46:23;;;;;;;;;;;18.80;99.90;;;;;;5016949;28;19909;-80
2021/09/03 01:48:49;;;;;;;;;;;18.90;99.90;;;;;;5020953;28;19914;-81
2021/09/03 01:51:15;;;;;;;;;;;18.90;99.90;;;;;;5013918;28;19910;-82
2021/09/03 01:53:40;;;;;;;;;;;19.00;99.90;;;;;;5012787;28;19909;-81
2021/09/03 01:56:07;;;;;;;;;;;19.00;99.90;;;;;;5017288;28;19966;-82
2021/09/03 01:58:32;;;;;;;;;;;19.10;99.90;;;;;;5015751;28;19909;-81
2021/09/03 02:00:58;;;;;;;;;;;19.00;99.90;;;;;;5012425;28;19916;-81
2021/09/03 02:03:24;;;;;;;;;;;19.00;99.90;;;;;;5013108;28;19909;-82
2021/09/03 02:05:49;;;;;;;;;;;18.90;99.90;;;;;;5018210;28;19917;-81
2021/09/03 02:08:15;;;;;;;;;;;18.90;99.90;;;;;;5012869;28;19910;-81
2021/09/03 02:10:41;;;;;;;;;;;18.80;99.90;;;;;;5016411;28;19905;-80
2021/09/03 02:13:06;;;;;;;;;;;18.80;99.90;;;;;;5015479;28;19925;-81
2021/09/03 02:15:32;;;;;;;;;;;18.80;99.90;;;;;;5011487;28;19905;-81
2021/09/03 02:17:58;;;;;;;;;;;18.70;99.90;;;;;;5005969;28;19917;-80
2021/09/03 02:20:24;;;;;;;;;;;18.50;99.90;;;;;;4999418;28;19910;-81
2021/09/03 02:22:49;;;;;;;;;;;18.50;99.90;;;;;;5019351;28;19913;-81
2021/09/03 02:25:15;;;;;;;;;;;18.40;99.90;;;;;;5024602;28;19920;-81
2021/09/03 02:27:40;;;;;;;;;;;18.40;99.90;;;;;;5014722;28;19929;-81
2021/09/03 02:30:06;;;;;;;;;;;18.40;99.90;;;;;;5011151;28;19918;-81
2021/09/03 02:32:32;;;;;;;;;;;18.40;99.90;;;;;;5015018;28;19962;-81
2021/09/03 02:34:58;;;;;;;;;;;18.50;99.90;;;;;;5019839;28;19910;-81
2021/09/03 02:37:23;;;;;;;;;;;18.60;99.90;;;;;;5018272;28;19935;-81
2021/09/03 02:39:49;;;;;;;;;;;18.60;99.90;;;;;;5012055;28;19910;-80
2021/09/03 02:42:15;;;;;;;;;;;18.60;99.90;;;;;;5013289;28;19906;-81
2021/09/03 02:44:41;;;;;;;;;;;18.50;99.90;;;;;;5012227;28;19949;-81
2021/09/03 02:47:06;;;;;;;;;;;18.60;99.90;;;;;;5018730;28;19928;-81
2021/09/03 02:49:32;;;;;;;;;;;18.40;99.90;;;;;;5016798;28;19909;-81
2021/09/03 02:51:58;;;;;;;;;;;18.40;99.90;;;;;;5023930;28;19909;-80
2021/09/03 02:54:23;;;;;;;;;;;18.40;99.90;;;;;;5018857;28;19984;-80
2021/09/03 02:56:49;;;;;;;;;;;18.50;99.90;;;;;;5026522;28;19925;-80
2021/09/03 02:59:15;;;;;;;;;;;18.60;99.90;;;;;;5013360;28;19913;-81
2021/09/03 03:01:40;;;;;;;;;;;18.60;99.90;;;;;;5012027;28;20180;-80
2021/09/03 03:04:06;;;;;;;;;;;18.50;99.90;;;;;;5016837;28;20019;-79
2021/09/03 03:06:32;;;;;;;;;;;18.60;99.90;;;;;;5017727;28;19921;-79
2021/09/03 03:08:57;;;;;;;;;;;18.50;99.90;;;;;;5017469;28;19937;-79
2021/09/03 03:11:23;;;;;;;;;;;18.60;99.90;;;;;;5016923;28;19906;-79
2021/09/03 03:13:56;;;;;;;;;;;18.60;99.90;;;;;;5014782;28;20283;-79
2021/09/03 03:16:22;;;;;;;;;;;18.60;99.90;;;;;;5024992;28;19909;-79
2021/09/03 03:18:47;;;;;;;;;;;18.70;99.90;;;;;;5021317;28;19933;-80
2021/09/03 03:21:13;;;;;;;;;;;18.70;99.90;;;;;;5013480;28;19916;-79
2021/09/03 03:23:39;;;;;;;;;;;18.80;99.90;;;;;;5028128;28;20043;-80
2021/09/03 03:26:04;;;;;;;;;;;18.90;99.90;;;;;;5012400;28;19920;-80
2021/09/03 03:28:30;;;;;;;;;;;18.90;99.90;;;;;;5017065;28;19945;-79
2021/09/03 03:30:56;;;;;;;;;;;19.10;99.90;;;;;;5013868;28;19910;-80
2021/09/03 03:33:22;;;;;;;;;;;19.20;99.90;;;;;;5002985;28;19945;-79
2021/09/03 03:35:47;;;;;;;;;;;19.20;99.90;;;;;;5014100;28;19936;-79
2021/09/03 03:38:13;;;;;;;;;;;19.20;99.90;;;;;;5027636;28;19910;-79
2021/09/03 03:40:38;;;;;;;;;;;19.30;99.90;;;;;;5013966;28;19910;-80
2021/09/03 03:43:04;;;;;;;;;;;19.30;99.90;;;;;;5019894;28;19910;-79
2021/09/03 03:45:29;;;;;;;;;;;19.20;99.90;;;;;;5024930;28;19965;-80
2021/09/03 03:47:55;;;;;;;;;;;19.20;99.90;;;;;;5018910;28;19913;-79
2021/09/03 03:50:21;;;;;;;;;;;19.20;99.90;;;;;;5019272;28;19956;-79
2021/09/03 03:52:47;;;;;;;;;;;19.20;99.90;;;;;;5012722;28;19914;-80
2021/09/03 03:55:12;;;;;;;;;;;19.20;99.90;;;;;;5022973;28;19929;-80
2021/09/03 03:57:38;;;;;;;;;;;19.30;99.90;;;;;;5022358;28;19964;-80
2021/09/03 04:00:05;;;;;;;;;;;19.30;99.90;;;;;;5017946;28;20358;-79
2021/09/03 04:02:30;;;;;;;;;;;19.30;99.90;;;;;;5014607;28;19910;-79
2021/09/03 04:04:56;;;;;;;;;;;19.40;99.90;;;;;;5013129;28;19906;-80
2021/09/03 04:07:22;;;;;;;;;;;19.40;99.90;;;;;;5020073;28;19910;-79
2021/09/03 04:09:48;;;;;;;;;;;19.40;99.90;;;;;;5018365;28;19909;-79
2021/09/03 04:12:13;;;;;;;;;;;19.40;99.90;;;;;;5012101;28;19913;-78
2021/09/03 04:14:40;;;;;;;;;;;19.40;99.90;;;;;;5014326;28;19944;-79
2021/09/03 04:17:06;;;;;;;;;;;19.40;99.90;;;;;;5018286;28;19917;-79
2021/09/03 04:19:32;;;;;;;;;;;19.40;99.90;;;;;;5022183;28;20112;-79
2021/09/03 04:21:57;;;;;;;;;;;19.40;99.90;;;;;;5006384;28;20660;-79
2021/09/03 04:24:23;;;;;;;;;;;19.40;99.90;;;;;;4994504;28;19926;-79
2021/09/03 04:26:48;;;;;;;;;;;19.40;99.90;;;;;;5005583;28;19960;-79
2021/09/03 04:29:14;;;;;;;;;;;19.30;99.90;;;;;;5010537;28;19920;-79
2021/09/03 04:31:40;;;;;;;;;;;19.40;99.90;;;;;;5019215;28;19910;-79
2021/09/03 04:34:05;;;;;;;;;;;19.40;99.90;;;;;;5019960;28;19913;-79
2021/09/03 04:36:31;;;;;;;;;;;19.50;99.90;;;;;;5008937;28;20203;-79
2021/09/03 04:38:57;;;;;;;;;;;19.50;99.90;;;;;;5006784;28;19967;-78
2021/09/03 04:41:22;;;;;;;;;;;19.50;99.90;;;;;;5018330;28;19905;-78
2021/09/03 04:43:48;;;;;;;;;;;19.50;99.90;;;;;;5015298;28;19909;-79
2021/09/03 04:46:14;;;;;;;;;;;19.50;99.90;;;;;;5018571;28;19916;-79
2021/09/03 04:48:39;;;;;;;;;;;19.50;99.90;;;;;;5015692;28;19910;-79
2021/09/03 04:51:05;;;;;;;;;;;19.40;99.90;;;;;;5026153;28;19906;-80
2021/09/03 04:53:31;;;;;;;;;;;19.30;99.90;;;;;;5008488;28;19912;-78
2021/09/03 04:55:56;;;;;;;;;;;19.30;99.90;;;;;;5017074;28;19993;-79
2021/09/03 04:58:22;;;;;;;;;;;19.30;99.90;;;;;;5017740;28;19909;-79
2021/09/03 05:00:48;;;;;;;;;;;19.30;99.90;;;;;;5019362;28;19905;-79
2021/09/03 05:03:13;;;;;;;;;;;19.40;99.90;;;;;;5012461;28;19914;-78
2021/09/03 05:05:39;;;;;;;;;;;19.40;99.90;;;;;;5005192;28;19918;-79
2021/09/03 05:08:05;;;;;;;;;;;19.50;99.90;;;;;;5000413;28;19996;-79
2021/09/03 05:10:31;;;;;;;;;;;19.40;99.90;;;;;;5011386;28;20288;-79
2021/09/03 05:12:56;;;;;;;;;;;19.40;99.90;;;;;;4994520;28;19921;-78
2021/09/03 05:15:30;;;;;;;;;;;19.50;99.90;;;;;;5000411;28;19916;-79
2021/09/03 05:17:55;;;;;;;;;;;19.70;99.90;;;;;;5009504;28;20378;-81
2021/09/03 05:20:21;;;;;;;;;;;19.70;99.90;;;;;;5030401;28;19914;-79
2021/09/03 05:22:47;;;;;;;;;;;19.80;99.90;;;;;;5006690;28;19914;-79
2021/09/03 05:25:14;;;;;;;;;;;19.90;99.90;;;;;;5020909;28;19913;-79
2021/09/03 05:27:40;;;;;;;;;;;19.90;99.90;;;;;;5018488;28;19937;-79
2021/09/03 05:30:07;;;;;;;;;;;19.90;99.90;;;;;;5012881;28;20387;-79
2021/09/03 05:32:33;;;;;;;;;;;20.00;99.90;;;;;;5013018;28;19910;-79
2021/09/03 05:34:59;;;;;;;;;;;20.10;99.90;;;;;;5013712;28;19909;-79
2021/09/03 05:37:24;;;;;;;;;;;20.00;99.90;;;;;;5011129;28;19916;-79
2021/09/03 05:39:50;;;;;;;;;;;20.00;99.90;;;;;;5002390;28;19980;-79
2021/09/03 05:42:18;;;;;;;;;;;20.10;99.90;;;;;;4997416;28;20387;-78
2021/09/03 05:44:43;;;;;;;;;;;20.20;99.90;;;;;;5001009;28;20075;-79
2021/09/03 05:47:09;;;;;;;;;;;20.10;99.90;;;;;;5014411;28;20000;-79
2021/09/03 05:49:35;;;;;;;;;;;20.00;99.90;;;;;;5001384;28;19917;-79
2021/09/03 05:52:00;;;;;;;;;;;19.90;99.90;;;;;;5002324;28;20312;-79
2021/09/03 05:54:26;;;;;;;;;;;19.90;99.90;;;;;;5010834;28;19977;-79
2021/09/03 05:56:52;;;;;;;;;;;19.90;99.90;;;;;;5020776;28;19976;-80
2021/09/03 05:59:17;;;;;;;;;;;19.90;99.90;;;;;;5009200;28;19960;-79
2021/09/03 06:01:43;;;;;;;;;;;20.10;99.90;;;;;;5007835;28;19910;-79
2021/09/03 06:04:09;;;;;;;;;;;20.30;99.90;;;;;;5005331;28;19963;-79
2021/09/03 06:06:34;;;;;;;;;;;20.30;99.90;;;;;;5016616;28;19921;-79
2021/09/03 06:09:00;;;;;;;;;;;20.30;99.90;;;;;;5003618;28;19952;-79
2021/09/03 06:11:25;;;;;;;;;;;20.30;99.90;;;;;;5014790;28;19936;-79
2021/09/03 06:13:52;;;;;;;;;;;20.20;99.90;;;;;;5006302;28;19909;-80
2021/09/03 06:16:18;;;;;;;;;;;20.30;99.90;;;;;;5000171;28;19918;-79
2021/09/03 06:18:43;;;;;;;;;;;20.30;99.90;;;;;;5009135;28;20390;-79
2021/09/03 06:21:09;;;;;;;;;;;20.40;99.90;;;;;;4998531;28;19935;-79
2021/09/03 06:23:35;;;;;;;;;;;20.50;99.90;;;;;;4982575;28;20433;-80
2021/09/03 06:26:00;;;;;;;;;;;20.50;99.90;;;;;;5011948;28;19914;-79
2021/09/03 06:28:26;;;;;;;;;;;20.50;99.90;;;;;;5006986;28;19956;-79
2021/09/03 06:30:51;;;;;;;;;;;20.50;99.90;;;;;;4999933;28;19910;-79
2021/09/03 06:33:17;;;;;;;;;;;20.60;99.90;;;;;;5002203;28;19918;-81
2021/09/03 06:35:43;;;;;;;;;;;20.70;99.90;;;;;;5006936;28;19905;-78
2021/09/03 06:38:08;;;;;;;;;;;20.80;99.90;;;;;;5004058;28;19918;-80
2021/09/03 06:40:34;;;;;;;;;;;20.90;99.90;;;;;;4985721;28;19924;-78
2021/09/03 06:43:00;;;;;;;;;;;21.10;99.90;;;;;;4988979;28;19920;-77
2021/09/03 06:45:25;;;;;;;;;;;21.10;99.90;;;;;;4993774;28;19960;-77
2021/09/03 06:47:51;;;;;;;;;;;21.10;99.90;;;;;;4998106;28;19918;-77
2021/09/03 06:50:18;;;;;;;;;;;21.10;99.90;;;;;;5001783;28;19910;-77
2021/09/03 06:52:44;;;;;;;;;;;21.10;99.90;;;;;;4996380;28;19953;-77
2021/09/03 06:55:11;;;;;;;;;;;21.20;99.90;;;;;;5007574;28;19905;-77
2021/09/03 06:57:40;;;;;;;;;;;21.30;99.90;;;;;;5009470;28;19913;-79
2021/09/03 07:00:06;;;;;;;;;;;21.40;99.90;;;;;;4995537;28;19953;-78
2021/09/03 07:02:32;;;;;;;;;;;21.60;99.90;;;;;;5007313;28;19996;-77
2021/09/03 07:04:57;;;;;;;;;;;21.70;99.90;;;;;;5005114;28;19944;-78
2021/09/03 07:07:23;;;;;;;;;;;21.90;99.90;;;;;;4994589;28;19932;-78
2021/09/03 07:09:49;;;;;;;;;;;21.90;99.90;;;;;;5004339;28;19910;-78
2021/09/03 07:12:14;;;;;;;;;;;22.00;99.90;;;;;;5003021;28;19909;-77
2021/09/03 07:14:40;;;;;;;;;;;22.00;99.90;;;;;;4996961;28;20352;-77
2021/09/03 07:17:06;;;;;;;;;;;22.10;99.90;;;;;;5011605;28;19917;-77
2021/09/03 07:19:33;;;;;;;;;;;22.20;99.90;;;;;;5005041;28;19920;-78
2021/09/03 07:21:59;;;;;;;;;;;22.30;99.90;;;;;;5014498;28;19905;-77
2021/09/03 07:24:24;;;;;;;;;;;22.40;99.90;;;;;;5007767;28;19910;-77
2021/09/03 07:26:50;;;;;;;;;;;22.30;99.90;;;;;;5000762;28;20004;-78
2021/09/03 07:29:16;;;;;;;;;;;22.30;99.90;;;;;;4998989;28;19909;-76
2021/09/03 07:31:41;;;;;;;;;;;22.40;99.90;;;;;;4993572;28;19917;-78
2021/09/03 07:34:07;;;;;;;;;;;22.40;99.90;;;;;;5005639;28;19917;-77
2021/09/03 07:36:33;;;;;;;;;;;22.50;99.90;;;;;;5008013;28;19914;-78
2021/09/03 07:38:58;;;;;;;;;;;22.60;99.90;;;;;;5011917;28;19910;-77
2021/09/03 07:41:24;;;;;;;;;;;22.70;99.90;;;;;;5017407;28;19905;-77
2021/09/03 07:43:50;;;;;;;;;;;22.80;99.90;;;;;;4999084;28;19909;-78
2021/09/03 07:46:15;;;;;;;;;;;22.90;99.90;;;;;;5001729;28;19914;-78
2021/09/03 07:48:41;;;;;;;;;;;22.90;99.90;;;;;;5006862;28;19905;-78
2021/09/03 07:51:07;;;;;;;;;;;22.90;99.90;;;;;;4999257;28;19936;-77
2021/09/03 07:53:32;;;;;;;;;;;22.90;99.90;;;;;;5011037;28;19979;-77
2021/09/03 07:55:59;;;;;;;;;;;22.90;99.90;;;;;;5010348;28;19924;-77
2021/09/03 07:58:25;;;;;;;;;;;22.90;99.90;;;;;;5006376;28;19948;-77
2021/09/03 08:00:51;;;;;;;;;;;23.00;99.90;;;;;;5000078;28;19913;-78
2021/09/03 08:03:17;;;;;;;;;;;23.10;99.90;;;;;;4995145;28;19959;-77
2021/09/03 08:05:42;;;;;;;;;;;23.30;99.90;;;;;;5003910;28;19914;-78
2021/09/03 08:08:11;;;;;;;;;;;23.40;99.90;;;;;;5007619;28;19915;-76
2021/09/03 08:10:37;;;;;;;;;;;23.40;99.90;;;;;;5003897;28;19995;-77
2021/09/03 08:13:04;;;;;;;;;;;23.50;99.90;;;;;;4997513;28;20291;-78
2021/09/03 08:15:33;;;;;;;;;;;23.60;99.90;;;;;;5008560;28;19917;-77
2021/09/03 08:18:17;;;;;;;;;;;23.60;99.90;;;;;;4999136;28;19914;-78
2021/09/03 08:20:55;;;;;;;;;;;23.50;99.90;;;;;;4978321;28;19933;-78
2021/09/03 08:23:21;;;;;;;;;;;23.50;99.90;;;;;;4990479;28;19916;-77
2021/09/03 08:25:49;;;;;;;;;;;23.60;99.90;;;;;;5010849;28;20370;-77
2021/09/03 08:28:15;;;;;;;;;;;23.70;99.90;;;;;;4995212;28;20265;-78
2021/09/03 08:30:41;;;;;;;;;;;23.80;99.90;;;;;;5010722;28;19910;-78
2021/09/03 08:33:07;;;;;;;;;;;23.80;99.90;;;;;;5010097;28;19916;-77
2021/09/03 08:35:47;;;;;;;;;;;23.90;99.90;;;;;;5000612;28;19909;-77
2021/09/03 08:38:16;;;;;;;;;;;24.00;99.90;;;;;;5005132;28;19913;-77
2021/09/03 08:40:41;;;;;;;;;;;24.10;99.90;;;;;;5005913;28;20329;-77
2021/09/03 08:43:07;;;;;;;;;;;24.10;99.90;;;;;;5001488;28;19953;-76
2021/09/03 08:45:33;;;;;;;;;;;24.30;99.90;;;;;;4998807;28;19914;-77
2021/09/03 08:47:59;;;;;;;;;;;24.40;99.90;;;;;;5001577;28;19905;-77
2021/09/03 08:50:57;;;;;;;;;;;24.30;99.90;;;;;;5018053;28;19906;-78
2021/09/03 08:53:48;;;;;;;;;;;24.20;99.90;;;;;;5007331;28;21288;-76
2021/09/03 08:56:39;;;;;;;;;;;24.10;99.90;;;;;;5010691;28;19905;-77
2021/09/03 08:59:33;;;;;;;;;;;23.90;99.90;;;;;;5003938;28;19963;-77
2021/09/03 09:02:17;;;;;;;;;;;23.80;99.90;;;;;;5007958;28;19909;-77
2021/09/03 09:04:44;;;;;;;;;;;23.70;99.90;;;;;;5002345;28;19996;-78
2021/09/03 09:07:10;;;;;;;;;;;23.50;99.90;;;;;;5003024;28;19910;-77
2021/09/03 09:09:48;;;;;;;;;;;23.50;99.90;;;;;;5003321;28;19963;-77
2021/09/03 09:12:20;;;;;;;;;;;23.60;99.90;;;;;;5004936;28;20276;-77
2021/09/03 09:15:06;;;;;;;;;;;23.60;99.90;;;;;;4998807;28;19929;-80
2021/09/03 09:17:33;;;;;;;;;;;23.50;99.90;;;;;;5002397;28;19914;-78
2021/09/03 09:19:59;;;;;;;;;;;23.50;99.90;;;;;;4993506;28;19909;-77
2021/09/03 09:22:25;;;;;;;;;;;23.40;99.90;;;;;;5001877;28;19917;-76
2021/09/03 09:24:51;;;;;;;;;;;23.40;99.90;;;;;;4995873;28;19910;-77
2021/09/03 09:27:24;;;;;;;;;;;23.30;99.90;;;;;;4995789;28;19917;-77
2021/09/03 09:29:50;;;;;;;;;;;23.40;99.90;;;;;;5001144;28;20104;-77
2021/09/03 09:32:16;;;;;;;;;;;23.50;99.90;;;;;;4997096;28;20459;-77
2021/09/03 09:34:54;;;;;;;;;;;23.50;99.90;;;;;;5004903;28;19912;-77
2021/09/03 09:37:33;;;;;;;;;;;;;;;;;;;;;
2021/09/03 09:46:31;;;;;;;;;;;23.70;99.90;;;;;;4994537;28;20005;-77
2021/09/03 09:49:02;;;;;;;;;;;23.70;99.90;;;;;;5000124;28;19937;-79
2021/09/03 09:51:38;;;;;;;;;;;23.70;99.90;;;;;;5000294;28;19967;-76
2021/09/03 09:57:52;;;;;;;;;;;23.80;99.90;;;;;;4981261;28;19914;-77
2021/09/03 10:00:17;;;;;;;;;;;23.80;99.90;;;;;;4986827;28;19961;-77
2021/09/03 10:02:43;;;;;;;;;;;23.80;99.90;;;;;;4984741;28;19949;-77
2021/09/03 10:05:10;;;;;;;;;;;23.90;99.90;;;;;;5002332;28;19999;-77
2021/09/03 10:07:37;;;;;;;;;;;24.00;99.90;;;;;;4994214;28;20128;-77
2021/09/03 10:10:12;;;;;;;;;;;24.10;99.90;;;;;;4998794;28;19928;-77
2021/09/03 10:12:38;;;;;;;;;;;24.00;99.90;;;;;;4993382;28;19965;-77
2021/09/03 10:15:07;;;;;;;;;;;24.10;99.90;;;;;;5004880;28;19909;-77
2021/09/03 10:17:33;;;;;;;;;;;24.20;99.90;;;;;;4996902;28;20371;-77
2021/09/03 10:19:59;;;;;;;;;;;24.00;99.90;;;;;;4993099;28;19973;-78
2021/09/03 10:22:26;;;;;;;;;;;24.00;99.90;;;;;;4997954;28;19910;-77
2021/09/03 10:25:06;;;;;;;;;;;23.90;99.90;;;;;;5001998;28;19914;-77
2021/09/03 10:27:34;;;;;;;;;;;23.80;99.90;;;;;;4996446;28;19985;-80
2021/09/03 10:30:13;;;;;;;;;;;24.00;99.90;;;;;;4989275;28;19957;-77
2021/09/03 10:32:40;;;;;;;;;;;24.20;99.90;;;;;;4983146;28;19910;-78
2021/09/03 10:35:22;;;;;;;;;;;24.10;99.90;;;;;;5003725;28;19918;-78
2021/09/03 10:37:49;;;;;;;;;;;24.00;99.90;;;;;;5007141;28;20679;-79
2021/09/03 10:40:35;;;;;;;;;;;24.00;99.90;;;;;;5027396;28;19905;-79
2021/09/03 10:45:54;;;;;;;;;;;24.00;99.90;;;;;;5011806;28;19968;-77
2021/09/03 10:48:23;;;;;;;;;;;24.00;99.90;;;;;;4997148;28;19944;-78
2021/09/03 10:50:54;;;;;;;;;;;24.00;99.90;;;;;;5004018;28;20287;-78
2021/09/03 10:53:21;;;;;;;;;;;24.10;99.90;;;;;;5011007;28;19910;-77
2021/09/03 10:56:05;;;;;;;;;;;24.10;99.90;;;;;;5001151;28;19997;-77
2021/09/03 10:58:36;;;;;;;;;;;24.10;99.90;;;;;;4995696;28;19982;-77
2021/09/03 11:01:11;;;;;;;;;;;24.10;99.90;;;;;;5001820;28;19909;-77
2021/09/03 11:03:37;;;;;;;;;;;24.10;99.90;;;;;;5000221;28;19909;-77
2021/09/03 11:06:02;;;;;;;;;;;24.10;99.90;;;;;;5004661;28;20335;-77
2021/09/03 11:08:38;;;;;;;;;;;24.20;99.90;;;;;;5003481;28;19952;-78
2021/09/03 11:11:22;;;;;;;;;;;24.30;99.90;;;;;;5008712;28;19913;-79
2021/09/03 11:13:48;;;;;;;;;;;24.30;99.90;;;;;;5013512;28;19964;-77
2021/09/03 11:16:30;;;;;;;;;;;24.40;99.90;;;;;;4999660;28;19916;-78
2021/09/03 11:19:06;;;;;;;;;;;24.50;99.90;;;;;;5002945;28;19917;-77
2021/09/03 11:21:32;;;;;;;;;;;24.60;99.90;;;;;;4997706;28;19909;-77
2021/09/03 11:23:58;;;;;;;;;;;24.70;99.90;;;;;;5010115;28;20363;-77
2021/09/03 11:26:25;;;;;;;;;;;24.60;99.90;;;;;;4999201;28;19933;-77
2021/09/03 11:28:50;;;;;;;;;;;24.60;99.90;;;;;;4998465;28;19916;-78
2021/09/03 11:31:16;;;;;;;;;;;24.60;99.90;;;;;;5005396;28;20298;-77
2021/09/03 11:33:45;;;;;;;;;;;24.80;99.90;;;;;;4995369;28;20389;-78
2021/09/03 11:36:11;;;;;;;;;;;24.90;99.90;;;;;;5002187;28;19906;-79
2021/09/03 11:38:36;;;;;;;;;;;25.00;99.90;;;;;;5006933;28;19920;-77
2021/09/03 11:41:09;;;;;;;;;;;25.00;99.90;;;;;;5007545;28;20375;-77
2021/09/03 11:43:34;;;;;;;;;;;24.80;99.90;;;;;;5004569;28;19917;-78
2021/09/03 11:46:01;;;;;;;;;;;24.80;99.90;;;;;;5006888;28;19921;-77
2021/09/03 11:48:26;;;;;;;;;;;24.60;99.90;;;;;;5002561;28;19914;-77
2021/09/03 11:50:52;;;;;;;;;;;24.40;99.90;;;;;;5005479;28;19972;-77
2021/09/03 11:53:17;;;;;;;;;;;24.40;99.90;;;;;;5011197;28;19916;-77
2021/09/03 11:55:46;;;;;;;;;;;24.40;99.90;;;;;;5005396;28;20302;-76
2021/09/03 11:58:12;;;;;;;;;;;24.40;99.90;;;;;;5003871;28;19960;-78
2021/09/03 12:00:40;;;;;;;;;;;24.40;99.90;;;;;;4998813;28;20303;-78
2021/09/03 12:03:10;;;;;;;;;;;24.40;99.90;;;;;;4998316;28;19917;-77
2021/09/03 12:05:37;;;;;;;;;;;24.40;99.90;;;;;;5000136;28;19913;-77
2021/09/03 12:08:03;;;;;;;;;;;24.40;99.90;;;;;;4998113;28;19915;-78
2021/09/03 12:10:52;;;;;;;;;;;24.40;99.90;;;;;;5007792;28;20000;-77
2021/09/03 12:13:18;;;;;;;;;;;24.60;99.90;;;;;;5000137;28;19914;-77
2021/09/03 12:15:45;;;;;;;;;;;24.60;99.90;;;;;;5004780;28;19910;-77
2021/09/03 12:18:21;;;;;;;;;;;24.60;99.90;;;;;;5003413;28;20027;-79
2021/09/03 12:20:48;;;;;;;;;;;24.70;99.90;;;;;;4985232;28;20257;-78
2021/09/03 12:23:14;;;;;;;;;;;24.70;99.90;;;;;;5010785;28;19918;-78
2021/09/03 12:25:39;;;;;;;;;;;24.80;99.90;;;;;;4995424;28;19914;-77
2021/09/03 12:28:12;;;;;;;;;;;24.80;99.90;;;;;;5007698;28;19916;-77
2021/09/03 12:30:39;;;;;;;;;;;24.90;99.90;;;;;;4996939;28;19913;-77
2021/09/03 12:33:18;;;;;;;;;;;24.90;99.90;;;;;;5007278;28;19933;-78
2021/09/03 12:35:44;;;;;;;;;;;24.80;99.90;;;;;;5010977;28;19913;-77
2021/09/03 12:38:09;;;;;;;;;;;24.70;99.90;;;;;;5004309;28;20029;-77
2021/09/03 12:40:35;;;;;;;;;;;24.60;99.90;;;;;;4996965;28;19942;-77
2021/09/03 12:43:01;;;;;;;;;;;24.60;99.90;;;;;;5002661;28;20284;-77
2021/09/03 12:45:46;;;;;;;;;;;24.60;99.90;;;;;;5003642;28;20351;-77
2021/09/03 12:48:12;;;;;;;;;;;24.50;99.90;;;;;;4982450;28;19969;-78
2021/09/03 12:50:43;;;;;;;;;;;24.50;99.90;;;;;;4997098;28;19949;-76
2021/09/03 12:53:16;;;;;;;;;;;24.40;99.90;;;;;;5004785;28;19913;-77
2021/09/03 12:55:42;;;;;;;;;;;24.30;99.90;;;;;;4998054;28;19964;-77
2021/09/03 12:58:07;;;;;;;;;;;24.40;99.90;;;;;;5004319;28;19914;-78
2021/09/03 13:00:35;;;;;;;;;;;24.50;99.90;;;;;;5004896;28;20392;-78
2021/09/03 13:03:01;;;;;;;;;;;24.60;99.90;;;;;;5004895;28;20335;-77
2021/09/03 13:05:26;;;;;;;;;;;24.70;99.90;;;;;;5015213;28;19924;-77
2021/09/03 13:07:52;;;;;;;;;;;24.80;99.90;;;;;;5007723;28;19916;-78
2021/09/03 13:10:18;;;;;;;;;;;24.80;99.90;;;;;;5006892;28;19905;-77
2021/09/03 13:12:44;;;;;;;;;;;25.00;99.90;;;;;;4999140;28;19985;-78
2021/09/03 13:15:10;;;;;;;;;;;25.00;99.90;;;;;;5003484;28;19949;-80
2021/09/03 13:20:29;;;;;;;;;;;25.10;99.90;;;;;;4975754;28;19976;-78
2021/09/03 13:22:55;;;;;;;;;;;25.20;99.90;;;;;;4997260;28;19913;-77
2021/09/03 13:25:23;;;;;;;;;;;25.30;99.90;;;;;;5008661;28;19906;-78
2021/09/03 13:27:49;;;;;;;;;;;25.30;99.90;;;;;;5004118;28;19909;-78
2021/09/03 13:30:15;;;;;;;;;;;25.30;99.90;;;;;;5014358;28;19973;-79
2021/09/03 13:32:47;;;;;;;;;;;25.30;99.90;;;;;;5004958;28;19917;-77
2021/09/03 13:35:14;;;;;;;;;;;25.10;99.90;;;;;;4997766;28;19906;-77
2021/09/03 13:37:42;;;;;;;;;;;25.00;99.90;;;;;;4997438;28;19929;-77
2021/09/03 13:40:17;;;;;;;;;;;24.80;99.90;;;;;;5000913;28;19914;-77
2021/09/03 13:45:42;;;;;;;;;;;24.20;99.90;;;;;;5008976;28;19916;-78
2021/09/03 13:48:13;;;;;;;;;;;24.20;99.90;;;;;;5011992;28;20318;-77
2021/09/03 13:50:38;;;;;;;;;;;24.10;99.90;;;;;;5008577;28;19913;-77
2021/09/03 13:53:08;;;;;;;;;;;24.10;99.90;;;;;;4990234;28;19953;-78
2021/09/03 13:55:34;;;;;;;;;;;24.20;99.90;;;;;;4986510;28;19909;-77
2021/09/03 13:58:00;;;;;;;;;;;24.20;99.90;;;;;;5010975;28;19917;-76
2021/09/03 14:00:28;;;;;;;;;;;24.10;99.90;;;;;;5005003;28;19905;-77
2021/09/03 14:05:40;;;;;;;;;;;24.00;99.90;;;;;;4998327;28;19937;-77
2021/09/03 14:08:07;;;;;;;;;;;23.90;99.90;;;;;;5012792;28;19912;-77
2021/09/03 14:10:33;;;;;;;;;;;23.90;99.90;;;;;;5006279;28;19913;-77
2021/09/03 14:12:59;;;;;;;;;;;23.90;99.90;;;;;;5006803;28;19909;-77
2021/09/03 14:15:28;;;;;;;;;;;23.80;99.90;;;;;;5011022;28;20359;-77
2021/09/03 14:17:54;;;;;;;;;;;23.90;99.90;;;;;;4997629;28;19925;-78
2021/09/03 14:20:24;;;;;;;;;;;24.00;99.90;;;;;;5006501;28;19910;-77
2021/09/03 14:22:53;;;;;;;;;;;24.10;99.90;;;;;;4999835;28;19917;-77
2021/09/03 14:25:19;;;;;;;;;;;24.40;99.90;;;;;;5007277;28;19918;-77
2021/09/03 14:27:48;;;;;;;;;;;24.50;99.90;;;;;;4999525;28;19917;-77
2021/09/03 14:33:33;;;;;;;;;;;24.50;99.90;;;;;;4999061;28;19921;-78
2021/09/03 14:36:00;;;;;;;;;;;24.40;99.90;;;;;;5009662;28;19905;-77
2021/09/03 14:38:26;;;;;;;;;;;24.50;99.90;;;;;;5004859;28;20275;-77
2021/09/03 14:40:52;;;;;;;;;;;24.60;99.90;;;;;;4998447;28;20007;-77
2021/09/03 14:43:18;;;;;;;;;;;24.80;99.90;;;;;;5001949;28;19918;-78
2021/09/03 14:45:48;;;;;;;;;;;25.10;99.90;;;;;;4983002;28;20275;-78